Terminal Aerodrome Forecast
Issued by NWS

Home | Current Version | Previous Version | Text Only | Print | Product List | Glossary On
Versions: 1 2 3 4 5 6 7 8 9 10 11 12 13 14 15
000
FTUS45 KRIW 070528
TAFRKS
TAF
KRKS 070528Z 0706/0806 11007KT P6SM SCT080
     FM071000 VRB06KT P6SM VCFG FEW005 SCT015
      TEMPO 0710/0714 1SM BR BKN005
     FM071600 VRB05KT P6SM SCT070 BKN120
     FM072100 VRB10G20KT P6SM VCTS BKN070CB
     FM080400 10007KT P6SM VCSH SCT050 BKN100=

USA.gov is the U.S. government's official web portal to all federal, state and local government web resources and services.